Time;durP1;ratioP1;P1;durP2;ratioP2;P2;SDS_P1;SDS_P2;PMS_P1;PMS_P2;Temp;Humidity;BMP_temperature;BMP_pressure;BME280_temperature;BME280_humidity;BME280_pressure;Samples;Min_cycle;Max_cycle;Signal;HPM_P1;HPM_P2
2022/03/24 00:00:08;;;;;;;38.27;23.07;;;3.40;1.00;;;;;;5093285;28;20225;-76
2022/03/24 00:02:35;;;;;;;38.17;22.10;;;3.40;1.00;;;;;;5101809;28;20565;-75
2022/03/24 00:05:02;;;;;;;37.53;21.63;;;3.30;1.00;;;;;;5102513;28;20500;-75
2022/03/24 00:07:29;;;;;;;37.47;22.57;;;3.10;1.00;;;;;;5092388;28;20200;-75
2022/03/24 00:09:56;;;;;;;38.43;22.47;;;3.00;1.00;;;;;;5093142;28;20194;-75
2022/03/24 00:12:23;;;;;;;37.53;21.43;;;2.90;1.00;;;;;;5093175;28;20193;-76
2022/03/24 00:14:51;;;;;;;36.83;21.90;;;2.90;1.00;;;;;;5092725;28;20205;-75
2022/03/24 00:17:18;;;;;;;37.47;22.77;;;3.00;1.00;;;;;;5092850;28;20225;-75
2022/03/24 00:19:45;;;;;;;35.27;21.33;;;3.10;1.00;;;;;;5091663;28;20209;-75
2022/03/24 00:22:12;;;;;;;47.30;22.90;;;3.10;1.00;;;;;;5092385;28;20209;-75
2022/03/24 00:24:57;;;;;;;39.73;22.87;;;3.30;1.00;;;;;;5092368;28;20593;-76
2022/03/24 00:27:25;;;;;;;36.90;20.80;;;3.30;99.90;;;;;;5092187;28;20205;-75
2022/03/24 00:29:53;;;;;;;39.73;21.33;;;3.10;99.90;;;;;;5092914;28;20200;-76
2022/03/24 00:32:20;;;;;;;38.00;22.50;;;2.90;1.00;;;;;;5092378;28;20251;-76
2022/03/24 00:34:47;;;;;;;35.03;20.90;;;3.00;1.00;;;;;;5092487;28;20539;-76
2022/03/24 00:37:14;;;;;;;34.30;20.00;;;3.00;1.00;;;;;;5092539;28;20201;-75
2022/03/24 00:39:41;;;;;;;36.50;21.77;;;3.00;1.00;;;;;;5092673;28;20702;-75
2022/03/24 00:42:11;;;;;;;41.30;22.77;;;3.00;1.00;;;;;;5092002;28;20198;-75
2022/03/24 00:44:40;;;;;;;35.33;21.27;;;3.00;1.00;;;;;;5092851;28;20644;-75
2022/03/24 00:47:09;;;;;;;35.40;20.67;;;3.00;1.00;;;;;;5092213;28;20206;-75
2022/03/24 00:49:35;;;;;;;33.30;20.13;;;3.10;1.00;;;;;;5092629;28;20197;-76
2022/03/24 00:52:03;;;;;;;31.47;19.47;;;3.10;1.00;;;;;;5092752;28;20202;-76
2022/03/24 00:54:30;;;;;;;32.00;19.27;;;3.20;25.20;;;;;;5092228;28;20570;-75
2022/03/24 00:56:57;;;;;;;34.33;20.20;;;3.10;99.90;;;;;;5091493;28;20225;-76
2022/03/24 00:59:24;;;;;;;34.93;20.67;;;3.20;99.90;;;;;;5091321;28;20295;-75
2022/03/24 01:01:52;;;;;;;35.27;20.10;;;3.10;99.90;;;;;;5092033;28;20205;-76
2022/03/24 01:04:20;;;;;;;32.60;18.77;;;3.20;99.90;;;;;;5092291;28;20560;-75
2022/03/24 01:06:47;;;;;;;33.67;20.13;;;3.10;99.90;;;;;;5091238;28;20456;-76
2022/03/24 01:09:14;;;;;;;34.93;20.33;;;3.10;21.60;;;;;;5091878;28;20548;-76
2022/03/24 01:11:41;;;;;;;33.37;20.67;;;3.00;1.00;;;;;;5091692;28;20209;-76
2022/03/24 01:14:08;;;;;;;37.07;20.47;;;2.90;1.00;;;;;;5090781;28;20263;-76
2022/03/24 01:16:35;;;;;;;39.67;21.03;;;2.80;99.90;;;;;;5092504;28;20674;-76
2022/03/24 01:19:02;;;;;;;33.23;20.20;;;2.80;1.00;;;;;;5091163;28;20699;-75
2022/03/24 01:21:31;;;;;;;35.47;21.17;;;2.70;6.00;;;;;;5091862;28;20201;-76
2022/03/24 01:24:00;;;;;;;37.53;21.33;;;2.80;99.90;;;;;;5090516;28;20197;-76
2022/03/24 01:26:27;;;;;;;35.97;21.10;;;2.90;99.90;;;;;;5091308;28;20198;-75
2022/03/24 01:28:55;;;;;;;35.57;21.53;;;2.80;1.00;;;;;;5091197;28;20208;-76
2022/03/24 01:31:22;;;;;;;36.73;21.70;;;3.00;99.90;;;;;;5090991;28;20213;-75
2022/03/24 01:33:49;;;;;;;38.83;22.90;;;3.20;1.00;;;;;;5092259;28;20220;-76
2022/03/24 01:36:16;;;;;;;33.57;20.33;;;2.90;99.90;;;;;;5091371;28;20201;-75
2022/03/24 01:38:44;;;;;;;36.03;22.60;;;2.70;99.90;;;;;;5091123;28;20213;-75
2022/03/24 01:41:11;;;;;;;36.53;21.97;;;2.40;99.90;;;;;;5091164;28;20208;-76
2022/03/24 01:43:40;;;;;;;35.83;21.80;;;2.40;1.00;;;;;;5091861;28;20560;-75
2022/03/24 01:46:08;;;;;;;37.83;21.87;;;2.30;1.00;;;;;;5091534;28;20190;-75
2022/03/24 01:48:35;;;;;;;36.97;22.27;;;2.20;1.00;;;;;;5091243;28;20243;-75
2022/03/24 01:51:02;;;;;;;35.53;20.73;;;2.10;1.00;;;;;;5091533;28;20193;-76
2022/03/24 01:53:29;;;;;;;36.57;21.87;;;2.20;58.30;;;;;;5091390;28;20205;-75
2022/03/24 01:55:59;;;;;;;41.30;22.67;;;2.40;99.90;;;;;;5091865;28;20640;-75
2022/03/24 01:58:27;;;;;;;37.40;21.43;;;2.40;99.90;;;;;;5090402;28;20560;-76
2022/03/24 02:01:01;;;;;;;38.50;21.83;;;2.30;1.00;;;;;;5089964;28;20327;-75
2022/03/24 02:03:28;;;;;;;35.47;20.37;;;2.20;1.00;;;;;;5072840;28;20225;-75
2022/03/24 02:05:55;;;;;;;37.67;22.23;;;2.30;30.00;;;;;;5089916;28;20201;-75
2022/03/24 02:08:22;;;;;;;37.63;21.77;;;2.00;99.90;;;;;;5091176;28;20212;-76
2022/03/24 02:10:49;;;;;;;39.17;20.43;;;1.50;1.00;;;;;;5091719;28;20198;-76
2022/03/24 02:13:17;;;;;;;36.57;20.40;;;1.40;1.00;;;;;;5091537;28;20201;-75
2022/03/24 02:15:44;;;;;;;37.27;21.33;;;1.60;1.00;;;;;;5091768;28;20664;-75
2022/03/24 02:18:13;;;;;;;37.57;21.73;;;1.70;1.00;;;;;;5090526;28;20198;-75
2022/03/24 02:20:41;;;;;;;39.97;21.67;;;1.70;1.00;;;;;;5090443;28;20222;-75
2022/03/24 02:23:09;;;;;;;38.57;21.57;;;1.90;1.00;;;;;;5091502;28;20204;-75
2022/03/24 02:25:38;;;;;;;35.60;20.70;;;1.80;1.00;;;;;;5090508;28;20662;-75
2022/03/24 02:28:05;;;;;;;35.93;21.17;;;1.70;1.00;;;;;;5090953;28;20190;-75
2022/03/24 02:30:32;;;;;;;36.23;21.27;;;1.70;99.90;;;;;;5091421;28;20201;-75
2022/03/24 02:32:59;;;;;;;36.10;20.87;;;1.60;1.00;;;;;;5090647;28;20202;-75
2022/03/24 02:35:26;;;;;;;36.93;21.63;;;1.60;1.00;;;;;;5090932;28;20449;-75
2022/03/24 02:37:53;;;;;;;37.57;21.83;;;1.70;99.90;;;;;;5091040;28;20566;-75
2022/03/24 02:40:22;;;;;;;34.43;20.27;;;1.80;1.00;;;;;;5090896;28;20222;-75
2022/03/24 02:42:50;;;;;;;35.47;19.37;;;1.60;1.00;;;;;;5090916;28;20660;-76
2022/03/24 02:45:17;;;;;;;36.63;19.80;;;1.30;1.00;;;;;;5095182;28;20204;-75
2022/03/24 02:47:46;;;;;;;34.63;19.67;;;1.10;99.90;;;;;;5094493;28;20554;-75
2022/03/24 02:50:13;;;;;;;35.87;20.13;;;1.20;99.90;;;;;;5094859;28;20208;-75
2022/03/24 02:52:40;;;;;;;34.17;19.57;;;1.00;1.00;;;;;;5094506;28;20564;-75
2022/03/24 02:55:09;;;;;;;35.23;20.07;;;1.10;1.00;;;;;;5093820;28;20198;-75
2022/03/24 02:57:37;;;;;;;36.53;20.97;;;1.40;1.00;;;;;;5093309;28;20193;-76
2022/03/24 03:00:05;;;;;;;36.10;21.20;;;1.50;1.00;;;;;;5094946;28;20222;-75
2022/03/24 03:02:32;;;;;;;35.10;20.93;;;1.60;1.00;;;;;;5093618;28;20668;-75
2022/03/24 03:05:00;;;;;;;39.47;20.87;;;1.70;1.00;;;;;;5094751;28;20205;-75
2022/03/24 03:07:28;;;;;;;37.30;21.00;;;1.70;99.90;;;;;;5094035;28;20213;-75
2022/03/24 03:09:55;;;;;;;37.30;20.97;;;1.70;99.90;;;;;;5094660;28;20293;-75
2022/03/24 03:12:22;;;;;;;40.43;21.70;;;1.70;1.00;;;;;;5093268;28;20204;-75
2022/03/24 03:14:50;;;;;;;36.07;20.90;;;1.50;1.00;;;;;;5094562;28;20209;-75
2022/03/24 03:17:17;;;;;;;35.93;20.77;;;1.50;1.00;;;;;;5094000;28;20204;-75
2022/03/24 03:19:46;;;;;;;36.93;20.20;;;1.40;1.00;;;;;;5093880;28;20694;-75
2022/03/24 03:22:13;;;;;;;30.93;18.57;;;1.30;1.00;;;;;;5094336;28;20502;-75
2022/03/24 03:24:40;;;;;;;34.67;19.53;;;1.20;1.00;;;;;;5093773;28;20220;-76
2022/03/24 03:27:08;;;;;;;35.53;19.77;;;1.10;1.00;;;;;;5093699;28;20533;-75
2022/03/24 03:29:35;;;;;;;34.33;19.23;;;1.00;1.00;;;;;;5094164;28;20190;-76
2022/03/24 03:32:04;;;;;;;36.23;20.40;;;1.00;1.00;;;;;;5094039;28;20197;-76
2022/03/24 03:34:31;;;;;;;37.43;21.70;;;1.20;6.50;;;;;;5094291;28;20197;-75
2022/03/24 03:37:00;;;;;;;42.20;23.77;;;1.30;1.00;;;;;;5093508;28;20285;-75
2022/03/24 03:39:27;;;;;;;40.23;21.57;;;1.30;1.00;;;;;;5093065;28;20648;-75
2022/03/24 03:41:55;;;;;;;41.90;22.47;;;1.50;1.00;;;;;;5092778;28;20205;-75
2022/03/24 03:44:23;;;;;;;34.90;20.53;;;1.40;91.80;;;;;;5093709;28;20247;-75
2022/03/24 03:46:51;;;;;;;37.10;22.07;;;1.40;1.00;;;;;;5093549;28;20204;-75
2022/03/24 03:49:21;;;;;;;35.40;21.07;;;1.40;1.00;;;;;;5093100;28;20293;-75
2022/03/24 03:51:48;;;;;;;38.27;20.70;;;1.40;1.00;;;;;;5093341;28;20197;-75
2022/03/24 03:54:15;;;;;;;34.83;19.30;;;1.10;1.00;;;;;;5105371;28;20209;-75
2022/03/24 03:56:42;;;;;;;34.77;20.23;;;0.60;1.00;;;;;;5095130;28;20201;-76
2022/03/24 03:59:08;;;;;;;39.40;20.80;;;0.50;1.00;;;;;;5073257;28;20201;-75
2022/03/24 04:01:36;;;;;;;40.13;22.13;;;0.40;1.00;;;;;;5073935;28;20715;-75
2022/03/24 04:04:04;;;;;;;34.30;20.20;;;0.40;62.70;;;;;;5093960;28;20233;-75
2022/03/24 04:06:32;;;;;;;37.17;20.63;;;0.40;99.90;;;;;;5093970;28;20297;-75
2022/03/24 04:08:59;;;;;;;35.87;20.63;;;0.50;99.90;;;;;;5092236;28;20205;-75
2022/03/24 04:11:26;;;;;;;37.20;21.03;;;0.60;99.90;;;;;;5093384;28;20292;-75
2022/03/24 04:13:53;;;;;;;37.23;21.00;;;0.80;99.90;;;;;;5093731;28;20216;-75
2022/03/24 04:16:20;;;;;;;37.27;21.60;;;1.00;40.70;;;;;;5092940;28;20259;-76
2022/03/24 04:18:47;;;;;;;42.03;22.83;;;0.80;1.00;;;;;;5092777;28;20228;-75
2022/03/24 04:21:15;;;;;;;40.17;22.40;;;0.90;1.00;;;;;;5093511;28;20222;-75
2022/03/24 04:23:44;;;;;;;39.17;22.77;;;0.90;1.00;;;;;;5093577;28;20629;-75
2022/03/24 04:26:11;;;;;;;41.20;21.50;;;0.70;7.90;;;;;;5093663;28;20201;-75
2022/03/24 04:28:39;;;;;;;34.93;20.80;;;0.60;99.90;;;;;;5093092;28;20201;-76
2022/03/24 04:31:06;;;;;;;37.77;21.07;;;0.50;1.00;;;;;;5093325;28;20198;-75
2022/03/24 04:33:33;;;;;;;39.33;21.33;;;0.20;1.00;;;;;;5093582;28;20201;-75
2022/03/24 04:36:00;;;;;;;37.03;20.37;;;0.00;99.90;;;;;;5093429;28;20207;-75
2022/03/24 04:38:27;;;;;;;38.40;21.97;;;0.10;1.00;;;;;;5092857;28;20601;-75
2022/03/24 04:40:56;;;;;;;39.67;21.57;;;0.10;99.90;;;;;;5093122;28;20225;-75
2022/03/24 04:43:23;;;;;;;37.80;21.03;;;0.20;1.00;;;;;;5093214;28;20206;-76
2022/03/24 04:45:50;;;;;;;39.63;22.67;;;0.20;1.00;;;;;;5093609;28;20556;-75
2022/03/24 04:48:18;;;;;;;39.07;21.27;;;0.30;1.00;;;;;;5092703;28;20573;-75
2022/03/24 04:50:45;;;;;;;38.80;22.53;;;0.50;1.00;;;;;;5093096;28;20423;-74
2022/03/24 04:53:14;;;;;;;42.07;23.00;;;0.60;1.00;;;;;;5093031;28;20293;-75
2022/03/24 04:55:41;;;;;;;38.20;22.27;;;0.70;99.90;;;;;;5093367;28;20690;-74
2022/03/24 04:58:09;;;;;;;35.07;20.33;;;0.60;1.00;;;;;;5092597;28;20206;-76
2022/03/24 05:00:36;;;;;;;36.87;21.37;;;0.60;1.00;;;;;;5092994;28;20228;-76
2022/03/24 05:03:03;;;;;;;36.77;21.33;;;0.20;1.00;;;;;;5092857;28;20652;-75
2022/03/24 05:05:30;;;;;;;41.17;22.83;;;0.10;1.00;;;;;;5092867;28;20208;-74
2022/03/24 05:07:56;;;;;;;36.97;20.97;;;0.20;99.90;;;;;;5091903;28;20570;-74
2022/03/24 05:10:23;;;;;;;41.43;22.93;;;0.20;99.90;;;;;;5093041;28;20629;-74
2022/03/24 05:12:50;;;;;;;38.27;21.47;;;0.20;99.90;;;;;;5092589;28;20202;-75
2022/03/24 05:15:18;;;;;;;39.63;20.83;;;0.20;99.90;;;;;;5092707;28;20197;-77
2022/03/24 05:17:45;;;;;;;37.40;21.37;;;0.20;99.90;;;;;;5092255;28;20209;-75
2022/03/24 05:20:14;;;;;;;39.80;22.47;;;0.10;99.90;;;;;;5092535;28;20706;-75
2022/03/24 05:22:41;;;;;;;58.10;32.20;;;0.30;1.00;;;;;;5092601;28;20450;-75
2022/03/24 05:25:08;;;;;;;44.13;24.63;;;0.60;1.00;;;;;;5092780;28;20202;-75
2022/03/24 05:27:35;;;;;;;38.40;22.13;;;0.80;1.00;;;;;;5091949;28;20205;-75
2022/03/24 05:30:02;;;;;;;37.00;20.93;;;0.80;1.00;;;;;;5092445;28;20208;-75
2022/03/24 05:32:30;;;;;;;36.23;21.53;;;0.90;1.00;;;;;;5089522;28;20212;-75
2022/03/24 05:34:57;;;;;;;39.67;21.37;;;1.00;1.00;;;;;;5090833;28;20208;-75
2022/03/24 05:37:24;;;;;;;36.33;20.80;;;0.80;99.90;;;;;;5090356;28;20205;-75
2022/03/24 05:39:51;;;;;;;35.73;21.10;;;1.00;1.00;;;;;;5089611;28;20228;-75
2022/03/24 05:42:18;;;;;;;37.40;22.07;;;1.00;99.90;;;;;;5091229;28;20228;-75
2022/03/24 05:44:45;;;;;;;37.63;21.67;;;1.00;1.00;;;;;;5091373;28;20197;-75
2022/03/24 05:47:11;;;;;;;36.57;20.67;;;1.10;1.00;;;;;;5091233;28;20205;-75
2022/03/24 05:49:40;;;;;;;45.30;21.87;;;1.20;1.00;;;;;;5092115;28;20201;-74
2022/03/24 05:52:07;;;;;;;36.67;21.60;;;1.20;1.00;;;;;;5091055;28;20197;-75
2022/03/24 05:54:35;;;;;;;37.97;22.00;;;1.30;1.00;;;;;;5091250;28;20197;-75
2022/03/24 05:57:02;;;;;;;40.57;21.80;;;1.30;1.00;;;;;;5091476;28;20214;-75
2022/03/24 05:59:29;;;;;;;38.93;22.67;;;1.60;1.00;;;;;;5091799;28;20736;-75
2022/03/24 06:01:57;;;;;;;38.17;21.77;;;1.70;1.00;;;;;;5091481;28;20556;-75
2022/03/24 06:04:25;;;;;;;36.77;21.13;;;2.20;99.90;;;;;;5092210;28;20564;-75
2022/03/24 06:06:56;;;;;;;38.10;22.00;;;3.00;1.00;;;;;;5091316;28;20741;-75
2022/03/24 06:09:23;;;;;;;35.77;21.87;;;3.40;99.90;;;;;;5091388;28;20181;-75
2022/03/24 06:11:52;;;;;;;35.77;21.70;;;3.90;85.50;;;;;;5091165;28;20197;-75
2022/03/24 06:14:20;;;;;;;37.47;21.23;;;3.90;99.90;;;;;;5092125;28;20217;-75
2022/03/24 06:16:48;;;;;;;34.77;20.93;;;3.50;1.00;;;;;;5091441;28;21382;-75
2022/03/24 06:19:15;;;;;;;46.33;23.10;;;3.30;99.90;;;;;;5093851;28;20235;-75
2022/03/24 06:21:42;;;;;;;35.70;20.57;;;3.10;1.00;;;;;;5095526;28;20710;-75
2022/03/24 06:24:10;;;;;;;35.20;21.77;;;2.90;1.00;;;;;;5094749;28;20205;-76
2022/03/24 06:26:38;;;;;;;38.60;22.43;;;3.00;99.90;;;;;;5095054;28;20681;-75
2022/03/24 06:29:05;;;;;;;39.30;22.50;;;3.40;1.00;;;;;;5095207;28;20584;-75
2022/03/24 06:31:32;;;;;;;37.33;21.93;;;4.10;1.00;;;;;;5095045;28;20213;-76
2022/03/24 06:33:59;;;;;;;36.80;21.13;;;4.80;1.00;;;;;;5095156;28;20197;-75
2022/03/24 06:36:26;;;;;;;34.67;21.87;;;4.60;99.90;;;;;;5094707;28;20212;-76
2022/03/24 06:38:54;;;;;;;38.33;23.30;;;4.60;99.90;;;;;;5094741;28;20209;-75
2022/03/24 06:41:22;;;;;;;39.00;22.97;;;4.90;1.00;;;;;;5094340;28;20597;-75
2022/03/24 06:43:50;;;;;;;36.63;23.10;;;4.70;1.00;;;;;;5094926;28;20217;-75
2022/03/24 06:46:17;;;;;;;45.23;24.93;;;4.80;1.00;;;;;;5095427;28;20291;-76
2022/03/24 06:48:44;;;;;;;39.47;24.43;;;5.30;1.00;;;;;;5094282;28;20652;-76
2022/03/24 06:51:11;;;;;;;37.07;23.60;;;5.10;1.00;;;;;;5095229;28;20194;-69
2022/03/24 06:53:38;;;;;;;39.30;25.13;;;5.40;1.00;;;;;;5095009;28;20309;-69
2022/03/24 06:56:06;;;;;;;35.67;24.37;;;5.40;99.90;;;;;;5095334;28;20289;-69
2022/03/24 06:58:34;;;;;;;36.13;23.10;;;5.30;99.90;;;;;;5094461;28;20656;-69
2022/03/24 07:01:01;;;;;;;39.13;24.77;;;5.30;99.90;;;;;;5093999;28;20229;-69
2022/03/24 07:03:28;;;;;;;37.23;24.40;;;5.00;1.00;;;;;;5095127;28;20205;-69
2022/03/24 07:05:55;;;;;;;35.17;24.03;;;5.10;1.00;;;;;;5094499;28;20198;-69
2022/03/24 07:08:23;;;;;;;37.77;24.80;;;4.90;1.00;;;;;;5094088;28;20209;-68
2022/03/24 07:10:50;;;;;;;37.23;24.43;;;5.20;1.00;;;;;;5094442;28;20216;-69
2022/03/24 07:13:17;;;;;;;38.80;26.57;;;5.60;1.00;;;;;;5094460;28;20266;-68
2022/03/24 07:15:45;;;;;;;40.63;25.53;;;5.30;1.00;;;;;;5093666;28;20206;-68
2022/03/24 07:18:13;;;;;;;36.93;24.73;;;5.30;1.00;;;;;;5093581;28;20675;-68
2022/03/24 07:20:40;;;;;;;48.87;24.57;;;5.90;1.00;;;;;;5094021;28;20201;-69
2022/03/24 07:23:08;;;;;;;47.33;25.80;;;6.30;99.90;;;;;;5093535;28;20210;-69
2022/03/24 07:25:36;;;;;;;50.20;26.73;;;6.00;99.90;;;;;;5094144;28;20197;-69
2022/03/24 07:28:05;;;;;;;39.37;24.80;;;5.60;99.90;;;;;;5094349;28;20258;-68
2022/03/24 07:30:32;;;;;;;42.17;24.83;;;5.70;99.90;;;;;;5093515;28;20411;-69
2022/03/24 07:33:02;;;;;;;41.80;26.83;;;5.70;1.00;;;;;;5074315;28;20199;-69
2022/03/24 07:35:30;;;;;;;43.03;24.80;;;6.10;1.00;;;;;;5073639;28;20240;-69
2022/03/24 07:37:58;;;;;;;43.17;25.00;;;6.60;1.00;;;;;;5072633;28;20210;-68
2022/03/24 07:40:25;;;;;;;46.50;25.27;;;7.10;99.90;;;;;;5073262;28;20218;-69
2022/03/24 07:42:57;;;;;;;49.70;25.70;;;6.80;99.90;;;;;;5073965;28;20222;-69
2022/03/24 07:45:25;;;;;;;48.77;26.93;;;7.50;38.10;;;;;;5073555;28;20256;-69
2022/03/24 07:48:16;;;;;;;49.93;26.67;;;8.10;1.00;;;;;;5092487;28;20648;-69
2022/03/24 07:50:45;;;;;;;47.47;27.13;;;8.70;99.90;;;;;;5093597;28;20546;-69
2022/03/24 07:53:24;;;;;;;42.33;27.00;;;8.60;99.90;;;;;;5095346;28;20202;-69
2022/03/24 07:55:51;;;;;;;41.50;25.93;;;8.70;1.00;;;;;;5093618;28;20197;-69
2022/03/24 07:58:20;;;;;;;39.33;25.27;;;8.80;99.90;;;;;;5093324;28;20205;-69
2022/03/24 08:00:48;;;;;;;42.03;26.57;;;8.20;99.90;;;;;;5093605;28;20669;-69
2022/03/24 08:03:18;;;;;;;59.80;26.30;;;9.20;99.90;;;;;;5093803;28;20206;-69
2022/03/24 08:05:45;;;;;;;40.53;24.53;;;9.30;99.90;;;;;;5092843;28;20208;-69
2022/03/24 08:08:13;;;;;;;39.73;25.10;;;8.40;99.90;;;;;;5091950;28;20644;-69
2022/03/24 08:10:41;;;;;;;38.30;25.23;;;8.40;99.90;;;;;;5092915;28;20482;-69
2022/03/24 08:13:08;;;;;;;39.57;24.70;;;8.50;99.90;;;;;;5093477;28;20259;-69
2022/03/24 08:15:37;;;;;;;41.70;26.40;;;9.30;99.90;;;;;;5093351;28;20223;-69
2022/03/24 08:18:04;;;;;;;42.27;27.17;;;9.50;99.90;;;;;;5093053;28;20220;-69
2022/03/24 08:20:32;;;;;;;40.10;25.10;;;9.40;99.90;;;;;;5093222;28;20201;-69
2022/03/24 08:22:59;;;;;;;39.57;25.37;;;9.80;99.90;;;;;;5093734;28;20232;-69
2022/03/24 08:25:26;;;;;;;38.73;24.20;;;9.50;99.90;;;;;;5091750;28;20207;-69
2022/03/24 08:27:53;;;;;;;37.10;25.03;;;9.40;99.90;;;;;;5091764;28;20209;-69
2022/03/24 08:30:20;;;;;;;44.27;26.90;;;9.10;99.90;;;;;;5092777;28;20223;-69
2022/03/24 08:32:47;;;;;;;42.10;25.80;;;8.90;1.00;;;;;;5092049;28;20656;-69
2022/03/24 08:35:14;;;;;;;38.83;25.20;;;9.00;1.00;;;;;;5093082;28;20667;-70
2022/03/24 08:37:42;;;;;;;39.50;25.07;;;9.10;99.90;;;;;;5091708;28;20216;-69
2022/03/24 08:40:11;;;;;;;40.60;24.93;;;9.20;99.90;;;;;;5092511;28;20555;-69
2022/03/24 08:42:39;;;;;;;45.77;25.67;;;9.50;99.90;;;;;;5092244;28;20278;-69
2022/03/24 08:45:07;;;;;;;39.43;25.07;;;9.60;99.90;;;;;;5092976;28;20193;-69
2022/03/24 08:47:35;;;;;;;41.67;25.47;;;10.00;99.90;;;;;;5092331;28;20194;-69
2022/03/24 08:50:02;;;;;;;39.73;25.27;;;9.90;99.90;;;;;;5092559;28;20201;-69
2022/03/24 08:52:29;;;;;;;38.33;25.73;;;10.00;99.90;;;;;;5092322;28;20201;-69
2022/03/24 08:54:57;;;;;;;41.83;26.50;;;10.20;99.90;;;;;;5092523;28;20206;-69
2022/03/24 08:57:26;;;;;;;40.20;25.63;;;10.30;31.40;;;;;;5092268;28;20613;-69
2022/03/24 08:59:54;;;;;;;42.23;27.40;;;10.60;25.50;;;;;;5092571;28;20613;-69
2022/03/24 09:02:21;;;;;;;38.93;26.27;;;10.70;1.00;;;;;;5092498;28;20229;-69
2022/03/24 09:04:49;;;;;;;41.63;25.77;;;11.00;1.00;;;;;;5092469;28;20263;-69
2022/03/24 09:07:15;;;;;;;41.30;25.57;;;10.90;1.00;;;;;;5091867;28;20213;-69
2022/03/24 09:09:42;;;;;;;41.83;25.17;;;11.00;1.00;;;;;;5092539;28;20213;-69
2022/03/24 09:12:11;;;;;;;43.57;27.70;;;11.40;1.00;;;;;;5091322;28;20195;-69
2022/03/24 09:14:39;;;;;;;41.73;26.90;;;11.60;1.00;;;;;;5091880;28;20208;-69
2022/03/24 09:17:06;;;;;;;41.00;26.13;;;11.60;1.00;;;;;;5092203;28;20335;-69
2022/03/24 09:19:34;;;;;;;44.97;27.53;;;12.10;1.00;;;;;;5091750;28;20202;-69
2022/03/24 09:22:01;;;;;;;45.70;26.63;;;12.40;1.00;;;;;;5092324;28;20225;-70
2022/03/24 09:24:28;;;;;;;44.03;27.40;;;12.60;1.00;;;;;;5091400;28;20569;-69
2022/03/24 09:26:55;;;;;;;46.97;27.73;;;13.10;1.00;;;;;;5091790;28;20202;-69
2022/03/24 09:29:23;;;;;;;41.53;26.33;;;13.00;1.00;;;;;;5091984;28;20596;-70
2022/03/24 09:31:51;;;;;;;42.00;26.33;;;13.10;1.00;;;;;;5091811;28;20198;-69
2022/03/24 09:34:18;;;;;;;44.03;27.40;;;13.10;1.00;;;;;;5092204;28;20216;-70
2022/03/24 09:36:46;;;;;;;41.53;26.67;;;13.00;1.00;;;;;;5092461;28;20209;-70
2022/03/24 09:39:14;;;;;;;41.20;25.77;;;13.20;1.00;;;;;;5091881;28;20227;-70
2022/03/24 09:41:43;;;;;;;40.50;26.77;;;13.20;1.00;;;;;;5091373;28;20240;-70
2022/03/24 09:44:11;;;;;;;44.47;26.40;;;13.10;1.00;;;;;;5092335;28;20198;-70
2022/03/24 09:46:40;;;;;;;42.13;25.10;;;13.50;1.00;;;;;;5091572;28;20671;-70
2022/03/24 09:49:10;;;;;;;40.03;25.63;;;13.50;1.00;;;;;;5091989;28;20204;-70
2022/03/24 09:51:39;;;;;;;41.67;26.67;;;13.50;1.00;;;;;;5091614;28;20608;-70
2022/03/24 09:54:10;;;;;;;45.07;26.13;;;13.80;1.00;;;;;;5096403;28;20209;-70
2022/03/24 09:56:37;;;;;;;38.53;24.67;;;13.70;1.00;;;;;;5095325;28;20198;-70
2022/03/24 09:59:04;;;;;;;38.27;26.17;;;13.80;1.00;;;;;;5095880;28;20208;-70
2022/03/24 10:01:32;;;;;;;39.70;25.70;;;14.20;99.90;;;;;;5095620;28;20208;-70
2022/03/24 10:04:08;;;;;;;41.30;25.90;;;14.30;99.90;;;;;;5096338;28;20674;-70
2022/03/24 10:06:36;;;;;;;41.50;25.63;;;14.40;99.90;;;;;;5095498;28;20619;-70
2022/03/24 10:09:04;;;;;;;40.30;26.23;;;14.50;99.90;;;;;;5094796;28;20197;-70
2022/03/24 10:11:31;;;;;;;35.93;24.33;;;14.30;99.90;;;;;;5095221;28;20198;-70
2022/03/24 10:13:59;;;;;;;38.23;26.23;;;14.60;99.90;;;;;;5095949;28;20226;-70
2022/03/24 10:16:41;;;;;;;39.77;25.37;;;15.00;99.90;;;;;;5095541;28;20297;-70
2022/03/24 10:19:14;;;;;;;46.77;25.33;;;14.70;99.90;;;;;;5095449;28;20209;-70
2022/03/24 10:21:43;;;;;;;41.27;26.33;;;15.00;99.90;;;;;;5095792;28;20207;-70
2022/03/24 10:24:12;;;;;;;36.30;24.07;;;15.30;99.90;;;;;;5094932;28;20213;-70
2022/03/24 10:26:47;;;;;;;43.80;24.93;;;15.20;99.90;;;;;;5094843;28;20190;-70
2022/03/24 10:29:17;;;;;;;34.53;23.13;;;15.00;99.90;;;;;;5094133;28;20205;-70
2022/03/24 10:31:44;;;;;;;37.67;22.90;;;14.80;99.90;;;;;;5094955;28;20205;-70
2022/03/24 10:34:13;;;;;;;36.83;23.77;;;14.90;99.90;;;;;;5095295;28;20201;-70
2022/03/24 10:36:42;;;;;;;33.80;21.02;;;15.20;99.90;;;;;;5095178;28;20228;-70
2022/03/24 10:39:09;;;;;;;34.70;22.83;;;15.30;99.90;;;;;;5093609;28;20221;-70
2022/03/24 10:41:38;;;;;;;33.30;22.47;;;15.10;99.90;;;;;;5094845;28;20205;-70
2022/03/24 10:44:11;;;;;;;37.27;22.53;;;14.90;99.90;;;;;;5095502;28;20198;-70
2022/03/24 10:46:41;;;;;;;31.67;22.02;;;15.30;99.90;;;;;;5094688;28;20675;-70
2022/03/24 10:49:18;;;;;;;35.58;22.65;;;15.20;99.90;;;;;;5093688;28;20296;-70
2022/03/24 10:51:46;;;;;;;38.27;23.57;;;15.60;99.90;;;;;;5094552;28;20201;-70
2022/03/24 10:54:30;;;;;;;34.95;21.45;;;15.60;99.90;;;;;;5095506;28;20210;-70
2022/03/24 10:57:04;;;;;;;33.83;22.25;;;15.90;99.90;;;;;;5094558;28;20201;-70
2022/03/24 10:59:37;;;;;;;32.05;20.65;;;16.30;99.90;;;;;;5094980;28;20704;-70
2022/03/24 11:02:05;;;;;;;37.22;21.35;;;16.00;99.90;;;;;;5094067;28;20676;-70
2022/03/24 11:04:33;;;;;;;32.92;22.75;;;16.20;99.90;;;;;;5094931;28;20262;-70
2022/03/24 11:07:00;;;;;;;36.97;21.70;;;16.40;99.90;;;;;;5094825;28;20202;-70
2022/03/24 11:09:29;;;;;;;32.10;20.40;;;16.00;99.90;;;;;;5094412;28;20201;-70
2022/03/24 11:12:25;;;;;;;32.90;20.77;;;15.60;99.90;;;;;;5094802;28;20231;-70
2022/03/24 11:14:54;;;;;;;33.25;21.55;;;15.80;99.90;;;;;;5094343;28;20508;-70
2022/03/24 11:17:23;;;;;;;36.15;22.23;;;16.20;99.90;;;;;;5094109;28;20659;-70
2022/03/24 11:20:08;;;;;;;34.88;21.70;;;16.10;99.90;;;;;;5093989;28;20198;-70
2022/03/24 11:22:45;;;;;;;31.23;20.75;;;16.40;99.90;;;;;;5094307;28;20554;-70
2022/03/24 11:25:11;;;;;;;31.55;21.20;;;15.90;99.90;;;;;;5094388;28;20207;-70
2022/03/24 11:27:39;;;;;;;31.10;20.33;;;16.10;99.90;;;;;;5093509;28;20206;-70
2022/03/24 11:30:10;;;;;;;32.42;20.55;;;16.10;99.90;;;;;;5094207;28;20198;-70
2022/03/24 11:32:39;;;;;;;32.63;21.95;;;16.20;99.90;;;;;;5093931;28;20554;-70
2022/03/24 11:35:09;;;;;;;34.60;20.95;;;16.20;99.90;;;;;;5093745;28;20209;-70
2022/03/24 11:37:36;;;;;;;31.75;20.90;;;16.40;99.90;;;;;;5093651;28;20205;-70
2022/03/24 11:40:07;;;;;;;33.20;21.15;;;16.30;99.90;;;;;;5093052;28;20256;-70
2022/03/24 11:42:37;;;;;;;32.28;19.10;;;16.40;99.90;;;;;;5094132;28;20565;-70
2022/03/24 11:45:09;;;;;;;32.75;20.00;;;16.20;99.90;;;;;;5093765;28;20197;-70
2022/03/24 11:47:52;;;;;;;31.55;18.35;;;16.30;99.90;;;;;;5093286;28;20259;-70
2022/03/24 11:50:35;;;;;;;29.75;18.33;;;16.40;99.90;;;;;;5093617;28;20205;-70
2022/03/24 11:53:17;;;;;;;29.20;16.75;;;16.40;99.90;;;;;;5093688;28;20289;-70
2022/03/24 11:56:18;;;;;;;27.30;17.58;;;16.60;99.90;;;;;;5092529;28;20202;-70
2022/03/24 11:59:20;;;;;;;26.48;17.52;;;16.60;99.90;;;;;;5093314;28;20600;-70
2022/03/24 12:01:47;;;;;;;30.30;18.35;;;16.50;99.90;;;;;;5096452;28;20205;-70
2022/03/24 12:04:16;;;;;;;26.42;16.85;;;16.80;99.90;;;;;;5104515;28;20225;-70
2022/03/24 12:06:53;;;;;;;28.85;15.82;;;16.90;99.90;;;;;;5109282;28;20656;-70
2022/03/24 12:09:25;;;;;;;24.60;15.13;;;16.60;99.90;;;;;;5093389;28;20580;-70
2022/03/24 12:11:53;;;;;;;26.27;14.30;;;16.60;99.90;;;;;;5093085;28;20202;-70
2022/03/24 12:14:22;;;;;;;27.92;15.63;;;16.30;99.90;;;;;;5093836;28;20193;-71
2022/03/24 12:16:51;;;;;;;27.10;15.77;;;16.60;99.90;;;;;;5091782;28;20216;-70
2022/03/24 12:19:52;;;;;;;29.27;17.27;;;16.70;99.90;;;;;;5093224;28;20198;-70
2022/03/24 12:22:36;;;;;;;29.90;16.15;;;16.70;99.90;;;;;;5010768;28;20208;-71
2022/03/24 12:25:28;;;;;;;27.30;14.90;;;16.70;99.90;;;;;;5009000;28;20208;-70
2022/03/24 12:28:10;;;;;;;28.15;18.55;;;16.50;99.90;;;;;;5066743;28;20584;-70
2022/03/24 12:31:04;;;;;;;33.28;17.83;;;16.50;99.90;;;;;;5090658;28;20194;-71
2022/03/24 12:33:34;;;;;;;27.40;16.92;;;16.50;99.90;;;;;;5092946;28;20564;-70
2022/03/24 12:36:02;;;;;;;31.15;16.67;;;16.40;99.90;;;;;;5093087;28;20231;-70
2022/03/24 12:38:49;;;;;;;28.08;16.70;;;16.60;99.90;;;;;;5092808;28;20206;-71
2022/03/24 12:41:26;;;;;;;31.33;17.20;;;16.50;99.90;;;;;;5092569;28;20201;-70
2022/03/24 12:44:02;;;;;;;27.83;16.50;;;17.00;99.90;;;;;;5092200;28;20628;-70
2022/03/24 12:46:33;;;;;;;25.45;15.07;;;17.30;99.90;;;;;;5092230;28;20193;-70